• Join FlightAware (Why Join?)
  • Login
  • US Flag 
07:51PM EST


 

Airport Tracker/Info


-or-


 

Live Flight TrackerFlight Track Log ✈ NAC31 ✈ 21-May-2012 ✈ PANC - PABE / BET

Flight Track Log - Related Links

Times and Time Zones

All times are in EDT time to prevent confusion due to time zone crossing. See the NAC31 flight status page for this flight to view local times or setup timezone preferences in your user account.

Time Position Orientation Groundspeed Altitude Reporting Facility
EDT Latitude Longitude Course Direction KTS MPH feet Rate Location/Type
04:44PM 61.2500 -150.4167 275° West 280 322 8,400  Level Anchorage Center
04:49PM 61.2833 -151.3500 279° West 370 426 19,500 2,040 Climbing Anchorage Center
04:50PM 61.3000 -151.5833 285° West 400 460 21,000 1,620 Climbing Anchorage Center
04:51PM 61.3333 -151.8500 279° West 400 460 22,800 1,500 Climbing Anchorage Center
04:52PM 61.3500 -152.0833 286° West 420 483 24,100 1,320 Climbing Anchorage Center
04:53PM 61.3833 -152.3333 278° West 430 495 25,500 1,380 Climbing Anchorage Center
04:54PM 61.4000 -152.5833 263° West 440 506 26,900 1,200 Climbing Anchorage Center
04:55PM 61.3833 -152.8500 262° West 440 506 28,000 540 Climbing Anchorage Center
04:56PM 61.3667 -153.1000 270° West 430 495 28,000  Level Anchorage Center
04:57PM 61.3667 -153.3333 262° West 430 495 28,000  Level Anchorage Center
04:58PM 61.3500 -153.5833 270° West 440 506 28,000  Level Anchorage Center
04:59PM 61.3500 -153.8333 262° West 430 495 28,000  Level Anchorage Center
05:00PM 61.3333 -154.0667 263° West 420 483 28,000  Level Anchorage Center
05:01PM 61.3167 -154.3333 270° West 430 495 28,000  Level Anchorage Center
05:02PM 61.3167 -154.5667 262° West 420 483 28,000  Level Anchorage Center
05:03PM 61.3000 -154.8167 263° West 430 495 28,000  Level Anchorage Center
05:04PM 61.2833 -155.1000 262° West 430 495 28,000  Level Anchorage Center
05:05PM 61.2667 -155.3500 262° West 430 495 28,000  Level Anchorage Center
05:06PM 61.2500 -155.6000 270° West 420 483 28,000  Level Anchorage Center
05:07PM 61.2500 -155.8333 262° West 430 495 28,000  Level Anchorage Center
05:08PM 61.2333 -156.0833 262° West 430 495 28,000  Level Anchorage Center
05:09PM 61.2167 -156.3167 262° West 420 483 28,000  Level Anchorage Center
05:10PM 61.2000 -156.5667 262° West 430 495 28,000  Level Anchorage Center
05:11PM 61.1833 -156.8167 262° West 430 495 28,000  Level Anchorage Center
05:12PM 61.1667 -157.0500 262° West 420 483 28,000  Level Anchorage Center
05:13PM 61.1500 -157.3000 262° West 430 495 28,000  Level Anchorage Center
05:14PM 61.1333 -157.5500 262° West 420 483 28,000  Level Anchorage Center
05:15PM 61.1167 -157.8000 262° West 440 506 28,000  Level Anchorage Center
05:16PM 61.1000 -158.0333 262° West 430 495 28,000  Level Anchorage Center
05:17PM 61.0833 -158.2833 262° West 430 495 28,000  Level Anchorage Center
05:18PM 61.0667 -158.5333 262° West 430 495 28,000  Level Anchorage Center
05:19PM 61.0500 -158.7667 262° West 430 495 28,000  Level Anchorage Center
05:20PM 61.0333 -159.0167 254° West 430 495 28,000 -540 Level Anchorage Center
05:21PM 61.0000 -159.2500 262° West 430 495 27,000 -1,920 Descending Anchorage Center
05:22PM 60.9833 -159.5000 263° West 430 495 24,200 -3,000 Descending Anchorage Center
05:23PM 60.9667 -159.7833 261° West 410 472 21,000 -2,940 Descending Anchorage Center
05:24PM 60.9500 -160.0000 254° West 400 460 18,300 -2,880 Descending Anchorage Center
05:25PM 60.9167 -160.2333 260° West 390 449 15,200 -2,640 Descending Anchorage Center
05:26PM 60.9000 -160.4333 260° West 370 426 13,000 -2,100 Descending Anchorage Center
05:27PM 60.8833 -160.6333 256° West 340 391 11,000 -1,380 Descending Anchorage Center
05:28PM 60.8667 -160.7667 260° West 340 391 10,300 -1,380 Descending Anchorage Center
05:29PM 60.8500 -160.9500 258° West 260 299 8,300 -1,740 Descending Anchorage Center
05:30PM 60.8333 -161.1167 270° West 290 334 6,900 -1,440 Descending Anchorage Center
05:31PM 60.8333 -161.2500 270° West 240 276 5,400 -1,500 Descending Anchorage Center